Create Tblcommutelog Verified Points Advance Search
| # | Trip ID | Id Commuter | Trip Date | Trip Num | Current Lat | Current Lng | Delta Distance | Current Time | Activity | Activity Confidence | Current Speed | |
|---|---|---|---|---|---|---|---|---|---|---|---|---|
| 73001 | 250811_784852_16652892_1530 | 784852 | (not set) | (not set) | 38.8200192 | -77.6342018 | 16.9068 | 2025-08-11 15:47:17 | in_vehicle | 100 | 5.1096587302297 | |
| 73002 | 250811_784852_16652892_1530 | 784852 | (not set) | (not set) | 38.8206507 | -77.6358328 | 16.8086 | 2025-08-11 15:46:58 | in_vehicle | 100 | 5.0202508784321 | |
| 73003 | 250811_784852_16652892_1530 | 784852 | (not set) | (not set) | 38.8187824 | -77.6349925 | 17.0022 | 2025-08-11 15:47:38 | in_vehicle | 100 | 4.0144125457098 | |
| 73004 | 250811_784852_16652892_1530 | 784852 | (not set) | (not set) | 38.8185747 | -77.636704 | 17.0957 | 2025-08-11 15:47:55 | in_vehicle | 100 | 2.9325775389595 | |
| 73005 | 250811_780789_16648466_1513 | 780789 | (not set) | (not set) | 38.924510383006 | -77.210635347639 | 10.8117 | 2025-08-11 15:48:37 | unknown | 100 | 0 | |
| 73006 | 250811_780789_16648466_1513 | 780789 | (not set) | (not set) | 38.924510383006 | -77.210635347639 | 10.8117 | 2025-08-11 15:48:38 | unknown | 100 | 0 | |
| 73007 | 250811_780809_16648486_1511 | 780809 | (not set) | (not set) | 38.924265946142 | -77.21096185065 | 11.1558 | 2025-08-11 15:48:41 | in_vehicle | 100 | 0 | |
| 73008 | 250811_781336_16649009_0838 | 781336 | (not set) | (not set) | 38.891407799814 | -77.028746625966 | 1.6559 | 2025-08-11 15:48:43 | still | 33 | -0.44703925898772 | |
| 73009 | 250811_781457_16649141_1546 | 781457 | (not set) | (not set) | 38.899957175429 | -77.04405058777 | 0.0702 | 2025-08-11 15:48:51 | on_foot | 100 | -0.44703925898772 | |
| 73010 | 250811_781457_16649141_1546 | 781457 | (not set) | (not set) | 38.899957175429 | -77.04405058777 | 0.0702 | 2025-08-11 15:48:51 | on_foot | 100 | -0.44703925898772 | |
| 73011 | 250811_781336_16649009_0838 | 781336 | (not set) | (not set) | 38.893063278776 | -77.028880946735 | 1.6559 | 2025-08-11 15:48:52 | still | 33 | -0.44703925898772 | |
| 73012 | 250811_780789_16648466_1513 | 780789 | (not set) | (not set) | 38.92422746766 | -77.211194451456 | 10.8476 | 2025-08-11 15:48:53 | unknown | 100 | 4.9666061673536 | |
| 73013 | 250811_780809_16648486_1511 | 780809 | (not set) | (not set) | 38.924035004106 | -77.211477124036 | 11.1878 | 2025-08-11 15:48:53 | still | 100 | 4.73414575268 | |
| 73014 | 250811_780809_16648486_1511 | 780809 | (not set) | (not set) | 38.923309319522 | -77.213101101746 | 11.2886 | 2025-08-11 15:49:04 | in_vehicle | 100 | 7.0319275438769 | |
| 73015 | 250811_781336_16649009_0838 | 781336 | (not set) | (not set) | 38.8938008608 | -77.028950312948 | 1.6559 | 2025-08-11 15:49:04 | in_vehicle | 100 | -0.44703925898772 | |
| 73016 | 250811_780789_16648466_1513 | 780789 | (not set) | (not set) | 38.923769856067 | -77.212062852183 | 10.9041 | 2025-08-11 15:49:05 | unknown | 100 | 6.6117106404284 | |
| 73017 | 250811_782322_16650013_1544 | 782322 | (not set) | (not set) | 39.064743351228 | -77.123495042396 | 1.2226 | 2025-08-11 15:49:07 | unknown | 100 | 9.615814460826 | |
| 73018 | 250811_780789_16648466_1513 | 780789 | (not set) | (not set) | 38.922651665892 | -77.214074873532 | 11.0371 | 2025-08-11 15:49:13 | unknown | 100 | 7.9707099877511 | |
| 73019 | 250811_780809_16648486_1511 | 780809 | (not set) | (not set) | 38.92252075305 | -77.215297995757 | 11.4189 | 2025-08-11 15:49:16 | in_vehicle | 100 | 8.6055057355137 | |
| 73020 | 250811_782322_16650013_1544 | 782322 | (not set) | (not set) | 39.066465245596 | -77.125460179594 | 1.3816 | 2025-08-11 15:49:17 | unknown | 100 | 12.083471170438 |